sensor_id;sensor_type;location;lat;lon;timestamp;pressure;altitude;pressure_sealevel;temperature;humidity
7182;BME280;3632;42.724;23.298;2023-03-05T00:01:53;94930.34;;;8.76;80.30
7182;BME280;3632;42.724;23.298;2023-03-05T00:04:20;94925.28;;;8.76;80.63
7182;BME280;3632;42.724;23.298;2023-03-05T00:06:48;94933.81;;;8.75;80.70
7182;BME280;3632;42.724;23.298;2023-03-05T00:09:14;94923.66;;;8.75;80.50
7182;BME280;3632;42.724;23.298;2023-03-05T00:11:41;94922.72;;;8.76;80.35
7182;BME280;3632;42.724;23.298;2023-03-05T00:14:09;94764.78;;;7.83;80.24
7182;BME280;3632;42.724;23.298;2023-03-05T00:16:38;94937.50;;;8.70;80.85
7182;BME280;3632;42.724;23.298;2023-03-05T00:19:05;94912.81;;;8.73;80.97
7182;BME280;3632;42.724;23.298;2023-03-05T00:21:34;94814.47;;;8.19;80.88
7182;BME280;3632;42.724;23.298;2023-03-05T00:24:03;94854.50;;;8.49;80.35
7182;BME280;3632;42.724;23.298;2023-03-05T00:26:33;94873.22;;;8.59;80.76
7182;BME280;3632;42.724;23.298;2023-03-05T00:29:00;94900.63;;;8.87;80.56
7182;BME280;3632;42.724;23.298;2023-03-05T00:31:29;94909.88;;;8.88;80.39
7182;BME280;3632;42.724;23.298;2023-03-05T00:34:00;94904.47;;;8.82;80.35
7182;BME280;3632;42.724;23.298;2023-03-05T00:36:27;94898.72;;;8.68;81.32
7182;BME280;3632;42.724;23.298;2023-03-05T00:38:54;94603.31;;;6.61;82.43
7182;BME280;3632;42.724;23.298;2023-03-05T00:41:21;94857.28;;;8.23;82.54
7182;BME280;3632;42.724;23.298;2023-03-05T00:43:48;94721.91;;;6.78;82.43
7182;BME280;3632;42.724;23.298;2023-03-05T00:46:15;94897.22;;;8.55;82.96
7182;BME280;3632;42.724;23.298;2023-03-05T00:48:42;94890.44;;;8.55;82.21
7182;BME280;3632;42.724;23.298;2023-03-05T00:51:10;94891.47;;;8.42;81.54
7182;BME280;3632;42.724;23.298;2023-03-05T00:53:37;94764.56;;;7.86;81.42
7182;BME280;3632;42.724;23.298;2023-03-05T00:56:05;94899.44;;;8.59;81.23
7182;BME280;3632;42.724;23.298;2023-03-05T00:58:32;94876.47;;;8.61;81.18
7182;BME280;3632;42.724;23.298;2023-03-05T01:00:59;94885.09;;;8.58;80.84
7182;BME280;3632;42.724;23.298;2023-03-05T01:03:27;94872.41;;;8.58;81.02
7182;BME280;3632;42.724;23.298;2023-03-05T01:05:54;94873.31;;;8.57;79.92
7182;BME280;3632;42.724;23.298;2023-03-05T01:08:22;94899.91;;;8.42;79.77
7182;BME280;3632;42.724;23.298;2023-03-05T01:10:49;94731.81;;;7.61;79.56
7182;BME280;3632;42.724;23.298;2023-03-05T01:13:16;94783.81;;;7.89;79.32
7182;BME280;3632;42.724;23.298;2023-03-05T01:15:43;94825.91;;;8.02;79.82
7182;BME280;3632;42.724;23.298;2023-03-05T01:18:12;94828.09;;;8.18;79.00
7182;BME280;3632;42.724;23.298;2023-03-05T01:20:38;94871.72;;;8.45;79.04
7182;BME280;3632;42.724;23.298;2023-03-05T01:23:05;94865.97;;;8.43;78.46
7182;BME280;3632;42.724;23.298;2023-03-05T01:25:33;94866.78;;;8.33;78.26
7182;BME280;3632;42.724;23.298;2023-03-05T01:28:00;94726.97;;;7.24;79.10
7182;BME280;3632;42.724;23.298;2023-03-05T01:30:27;94891.31;;;8.21;79.08
7182;BME280;3632;42.724;23.298;2023-03-05T01:32:54;94864.00;;;8.13;79.78
7182;BME280;3632;42.724;23.298;2023-03-05T01:35:23;94869.84;;;8.03;80.87
7182;BME280;3632;42.724;23.298;2023-03-05T01:37:50;94806.16;;;7.61;79.49
7182;BME280;3632;42.724;23.298;2023-03-05T01:40:19;94696.19;;;6.96;79.70
7182;BME280;3632;42.724;23.298;2023-03-05T01:42:48;94778.75;;;7.55;79.32
7182;BME280;3632;42.724;23.298;2023-03-05T01:45:20;94876.22;;;8.08;79.16
7182;BME280;3632;42.724;23.298;2023-03-05T01:47:47;94593.13;;;6.28;78.91
7182;BME280;3632;42.724;23.298;2023-03-05T01:50:16;94784.72;;;7.65;79.38
7182;BME280;3632;42.724;23.298;2023-03-05T01:52:49;94856.81;;;8.07;78.87
7182;BME280;3632;42.724;23.298;2023-03-05T01:55:20;94892.00;;;8.12;79.25
7182;BME280;3632;42.724;23.298;2023-03-05T01:57:50;94851.06;;;8.16;78.50
7182;BME280;3632;42.724;23.298;2023-03-05T02:00:21;94282.91;;;4.44;78.02
7182;BME280;3632;42.724;23.298;2023-03-05T02:02:51;94852.78;;;8.05;78.37
7182;BME280;3632;42.724;23.298;2023-03-05T02:05:20;94933.19;;;8.04;78.71
7182;BME280;3632;42.724;23.298;2023-03-05T02:07:52;94864.56;;;8.06;78.42
7182;BME280;3632;42.724;23.298;2023-03-05T02:10:21;94853.13;;;7.89;78.53
7182;BME280;3632;42.724;23.298;2023-03-05T02:12:51;94845.09;;;7.49;78.74
7182;BME280;3632;42.724;23.298;2023-03-05T02:15:18;94850.94;;;8.07;79.23
7182;BME280;3632;42.724;23.298;2023-03-05T02:17:46;94855.09;;;8.19;78.28
7182;BME280;3632;42.724;23.298;2023-03-05T02:20:15;94861.78;;;8.20;78.95
7182;BME280;3632;42.724;23.298;2023-03-05T02:22:44;94715.69;;;7.28;79.14
7182;BME280;3632;42.724;23.298;2023-03-05T02:25:16;94860.41;;;8.16;78.49
7182;BME280;3632;42.724;23.298;2023-03-05T02:27:48;94859.03;;;8.01;79.02
7182;BME280;3632;42.724;23.298;2023-03-05T02:30:17;94704.97;;;5.96;79.52
7182;BME280;3632;42.724;23.298;2023-03-05T02:32:44;94851.75;;;7.96;80.04
7182;BME280;3632;42.724;23.298;2023-03-05T02:35:11;94862.47;;;8.00;79.56
7182;BME280;3632;42.724;23.298;2023-03-05T02:37:37;94813.78;;;7.72;79.80
7182;BME280;3632;42.724;23.298;2023-03-05T02:40:08;94859.47;;;7.95;80.48
7182;BME280;3632;42.724;23.298;2023-03-05T02:42:35;94767.63;;;7.23;80.49
7182;BME280;3632;42.724;23.298;2023-03-05T02:45:03;94853.69;;;7.70;80.67
7182;BME280;3632;42.724;23.298;2023-03-05T02:47:30;94857.78;;;7.60;81.75
7182;BME280;3632;42.724;23.298;2023-03-05T02:49:57;94319.69;;;3.61;81.88
7182;BME280;3632;42.724;23.298;2023-03-05T02:52:24;94861.03;;;7.62;81.83
7182;BME280;3632;42.724;23.298;2023-03-05T02:54:51;94868.66;;;7.62;82.24
7182;BME280;3632;42.724;23.298;2023-03-05T02:57:19;94878.09;;;7.60;82.61
7182;BME280;3632;42.724;23.298;2023-03-05T02:59:46;94868.75;;;7.61;82.01
7182;BME280;3632;42.724;23.298;2023-03-05T03:02:13;94867.38;;;7.57;82.14
7182;BME280;3632;42.724;23.298;2023-03-05T03:04:41;94859.66;;;7.58;82.33
7182;BME280;3632;42.724;23.298;2023-03-05T03:07:08;94910.59;;;7.55;82.09
7182;BME280;3632;42.724;23.298;2023-03-05T03:09:34;94874.41;;;7.53;82.44
7182;BME280;3632;42.724;23.298;2023-03-05T03:12:02;94857.53;;;7.41;81.65
7182;BME280;3632;42.724;23.298;2023-03-05T03:14:31;94976.34;;;6.98;81.17
7182;BME280;3632;42.724;23.298;2023-03-05T03:17:03;94868.84;;;7.48;81.61
7182;BME280;3632;42.724;23.298;2023-03-05T03:19:30;94832.63;;;7.35;81.17
7182;BME280;3632;42.724;23.298;2023-03-05T03:21:57;94812.31;;;7.13;81.22
7182;BME280;3632;42.724;23.298;2023-03-05T03:24:23;94866.97;;;7.39;81.61
7182;BME280;3632;42.724;23.298;2023-03-05T03:26:50;94805.56;;;7.01;81.17
7182;BME280;3632;42.724;23.298;2023-03-05T03:29:17;94878.06;;;7.38;82.03
7182;BME280;3632;42.724;23.298;2023-03-05T03:31:45;94872.81;;;7.28;81.93
7182;BME280;3632;42.724;23.298;2023-03-05T03:34:12;94860.97;;;7.05;82.13
7182;BME280;3632;42.724;23.298;2023-03-05T03:36:40;94878.88;;;7.15;82.74
7182;BME280;3632;42.724;23.298;2023-03-05T03:39:07;94818.88;;;5.82;83.14
7182;BME280;3632;42.724;23.298;2023-03-05T03:41:35;94867.09;;;7.14;83.75
7182;BME280;3632;42.724;23.298;2023-03-05T03:44:02;94882.19;;;7.04;83.61
7182;BME280;3632;42.724;23.298;2023-03-05T03:46:32;94875.09;;;7.20;83.76
7182;BME280;3632;42.724;23.298;2023-03-05T03:49:00;94808.00;;;6.55;84.48
7182;BME280;3632;42.724;23.298;2023-03-05T03:51:27;94872.88;;;6.92;85.06
7182;BME280;3632;42.724;23.298;2023-03-05T03:53:54;94896.50;;;6.93;85.58
7182;BME280;3632;42.724;23.298;2023-03-05T03:56:21;94866.75;;;6.83;85.33
7182;BME280;3632;42.724;23.298;2023-03-05T03:58:48;94877.25;;;6.90;85.60
7182;BME280;3632;42.724;23.298;2023-03-05T04:01:15;94775.81;;;6.20;86.07
7182;BME280;3632;42.724;23.298;2023-03-05T04:03:42;94872.63;;;6.84;85.88
7182;BME280;3632;42.724;23.298;2023-03-05T04:06:10;94878.25;;;6.87;86.24
7182;BME280;3632;42.724;23.298;2023-03-05T04:08:37;94873.31;;;6.86;85.99
7182;BME280;3632;42.724;23.298;2023-03-05T04:11:03;94868.25;;;6.86;85.71
7182;BME280;3632;42.724;23.298;2023-03-05T04:13:30;94874.16;;;6.86;85.77
7182;BME280;3632;42.724;23.298;2023-03-05T04:15:57;94876.69;;;6.86;85.29
7182;BME280;3632;42.724;23.298;2023-03-05T04:18:24;94879.75;;;6.66;85.30
7182;BME280;3632;42.724;23.298;2023-03-05T04:20:51;94881.19;;;6.70;85.37
7182;BME280;3632;42.724;23.298;2023-03-05T04:23:19;94878.31;;;6.75;85.42
7182;BME280;3632;42.724;23.298;2023-03-05T04:25:45;94873.25;;;6.75;84.75
7182;BME280;3632;42.724;23.298;2023-03-05T04:28:12;94849.81;;;6.60;83.98
7182;BME280;3632;42.724;23.298;2023-03-05T04:30:39;94209.81;;;2.59;83.05
7182;BME280;3632;42.724;23.298;2023-03-05T04:33:06;94766.84;;;5.42;83.90
7182;BME280;3632;42.724;23.298;2023-03-05T04:35:32;94877.72;;;6.71;84.49
7182;BME280;3632;42.724;23.298;2023-03-05T04:37:59;94885.91;;;6.75;83.73
7182;BME280;3632;42.724;23.298;2023-03-05T04:40:27;94883.38;;;6.75;82.90
7182;BME280;3632;42.724;23.298;2023-03-05T04:42:54;94876.50;;;6.77;83.37
7182;BME280;3632;42.724;23.298;2023-03-05T04:45:21;94877.81;;;6.82;82.35
7182;BME280;3632;42.724;23.298;2023-03-05T04:47:48;94810.59;;;6.42;81.39
7182;BME280;3632;42.724;23.298;2023-03-05T04:50:14;94873.66;;;6.81;81.83
7182;BME280;3632;42.724;23.298;2023-03-05T04:52:42;94872.75;;;6.82;82.03
7182;BME280;3632;42.724;23.298;2023-03-05T04:55:11;94887.81;;;6.84;82.23
7182;BME280;3632;42.724;23.298;2023-03-05T04:57:40;94879.72;;;6.79;81.63
7182;BME280;3632;42.724;23.298;2023-03-05T05:00:10;94868.81;;;6.78;82.89
7182;BME280;3632;42.724;23.298;2023-03-05T05:02:38;94190.97;;;2.40;82.35
7182;BME280;3632;42.724;23.298;2023-03-05T05:05:06;94864.38;;;6.69;83.09
7182;BME280;3632;42.724;23.298;2023-03-05T05:07:33;94866.19;;;6.67;82.35
7182;BME280;3632;42.724;23.298;2023-03-05T05:09:59;94871.25;;;6.67;83.07
7182;BME280;3632;42.724;23.298;2023-03-05T05:12:27;94880.69;;;6.65;82.74
7182;BME280;3632;42.724;23.298;2023-03-05T05:14:56;94792.94;;;6.17;81.83
7182;BME280;3632;42.724;23.298;2023-03-05T05:17:23;94877.63;;;6.73;82.79
7182;BME280;3632;42.724;23.298;2023-03-05T05:19:50;94494.81;;;4.32;82.30
7182;BME280;3632;42.724;23.298;2023-03-05T05:22:17;94611.97;;;4.91;83.21
7182;BME280;3632;42.724;23.298;2023-03-05T05:24:43;94481.41;;;4.19;82.83
7182;BME280;3632;42.724;23.298;2023-03-05T05:27:10;94519.22;;;4.44;82.40
7182;BME280;3632;42.724;23.298;2023-03-05T05:29:37;94761.31;;;5.98;81.28
7182;BME280;3632;42.724;23.298;2023-03-05T05:32:06;94888.78;;;6.70;81.71
7182;BME280;3632;42.724;23.298;2023-03-05T05:34:33;94802.16;;;6.18;81.23
7182;BME280;3632;42.724;23.298;2023-03-05T05:36:59;94685.53;;;5.48;81.57
7182;BME280;3632;42.724;23.298;2023-03-05T05:39:26;94891.09;;;6.73;80.93
7182;BME280;3632;42.724;23.298;2023-03-05T05:41:53;94770.44;;;6.01;81.20
7182;BME280;3632;42.724;23.298;2023-03-05T05:44:20;94880.84;;;6.75;81.36
7182;BME280;3632;42.724;23.298;2023-03-05T05:46:46;94884.97;;;6.88;80.58
7182;BME280;3632;42.724;23.298;2023-03-05T05:49:15;94861.06;;;6.56;80.01
7182;BME280;3632;42.724;23.298;2023-03-05T05:51:41;94723.94;;;4.65;79.01
7182;BME280;3632;42.724;23.298;2023-03-05T05:54:11;94893.00;;;6.82;79.74
7182;BME280;3632;42.724;23.298;2023-03-05T05:56:38;94896.63;;;6.91;78.32
7182;BME280;3632;42.724;23.298;2023-03-05T05:59:05;94932.41;;;6.86;78.05
7182;BME280;3632;42.724;23.298;2023-03-05T06:01:33;94902.91;;;6.85;78.39
7182;BME280;3632;42.724;23.298;2023-03-05T06:04:01;94898.53;;;6.87;78.24
7182;BME280;3632;42.724;23.298;2023-03-05T06:06:29;94903.50;;;6.89;77.44
7182;BME280;3632;42.724;23.298;2023-03-05T06:08:57;94755.28;;;5.00;77.00
7182;BME280;3632;42.724;23.298;2023-03-05T06:11:24;94862.41;;;6.49;76.62
7182;BME280;3632;42.724;23.298;2023-03-05T06:13:50;94618.72;;;4.90;77.31
7182;BME280;3632;42.724;23.298;2023-03-05T06:16:19;94937.78;;;7.06;76.62
7182;BME280;3632;42.724;23.298;2023-03-05T06:18:48;94912.94;;;7.11;75.47
7182;BME280;3632;42.724;23.298;2023-03-05T06:21:16;94901.69;;;7.15;74.20
7182;BME280;3632;42.724;23.298;2023-03-05T06:23:46;94903.97;;;7.18;74.60
7182;BME280;3632;42.724;23.298;2023-03-05T06:26:15;94897.84;;;7.09;74.89
7182;BME280;3632;42.724;23.298;2023-03-05T06:28:42;94911.00;;;7.14;73.98
7182;BME280;3632;42.724;23.298;2023-03-05T06:31:10;94912.84;;;7.12;73.35
7182;BME280;3632;42.724;23.298;2023-03-05T06:33:38;94888.97;;;7.04;74.08
7182;BME280;3632;42.724;23.298;2023-03-05T06:36:07;94922.13;;;7.24;73.53
7182;BME280;3632;42.724;23.298;2023-03-05T06:38:34;94924.75;;;7.23;72.00
7182;BME280;3632;42.724;23.298;2023-03-05T06:41:04;94929.72;;;7.24;72.37
7182;BME280;3632;42.724;23.298;2023-03-05T06:43:31;94391.94;;;3.61;72.22
7182;BME280;3632;42.724;23.298;2023-03-05T06:46:03;94925.28;;;7.39;72.30
7182;BME280;3632;42.724;23.298;2023-03-05T06:48:30;94847.69;;;6.91;72.01
7182;BME280;3632;42.724;23.298;2023-03-05T06:50:56;94736.16;;;6.21;71.72
7182;BME280;3632;42.724;23.298;2023-03-05T06:53:23;94852.28;;;6.97;71.61
7182;BME280;3632;42.724;23.298;2023-03-05T06:55:50;94936.13;;;7.41;71.67
7182;BME280;3632;42.724;23.298;2023-03-05T06:58:19;94931.63;;;7.45;69.78
7182;BME280;3632;42.724;23.298;2023-03-05T07:00:46;94933.19;;;7.34;70.54
7182;BME280;3632;42.724;23.298;2023-03-05T07:03:13;94923.69;;;7.38;70.78
7182;BME280;3632;42.724;23.298;2023-03-05T07:05:40;94938.19;;;7.36;70.54
7182;BME280;3632;42.724;23.298;2023-03-05T07:08:07;94934.72;;;7.37;70.00
7182;BME280;3632;42.724;23.298;2023-03-05T07:10:37;94922.06;;;7.37;70.00
7182;BME280;3632;42.724;23.298;2023-03-05T07:13:04;94939.81;;;7.37;70.11
7182;BME280;3632;42.724;23.298;2023-03-05T07:15:33;94777.41;;;6.34;70.02
7182;BME280;3632;42.724;23.298;2023-03-05T07:17:59;94939.00;;;7.37;70.07
7182;BME280;3632;42.724;23.298;2023-03-05T07:20:26;94888.78;;;6.94;70.28
7182;BME280;3632;42.724;23.298;2023-03-05T07:22:54;94944.53;;;7.42;70.45
7182;BME280;3632;42.724;23.298;2023-03-05T07:25:21;94939.41;;;7.54;70.11
7182;BME280;3632;42.724;23.298;2023-03-05T07:27:49;94863.41;;;7.07;68.80
7182;BME280;3632;42.724;23.298;2023-03-05T07:30:16;94872.00;;;6.57;67.77
7182;BME280;3632;42.724;23.298;2023-03-05T07:32:44;94878.53;;;7.19;67.01
7182;BME280;3632;42.724;23.298;2023-03-05T07:35:11;94726.84;;;5.97;66.61
7182;BME280;3632;42.724;23.298;2023-03-05T07:37:38;94488.06;;;4.81;66.21
7182;BME280;3632;42.724;23.298;2023-03-05T07:40:06;94936.66;;;7.68;64.82
7182;BME280;3632;42.724;23.298;2023-03-05T07:42:33;94674.34;;;6.71;63.72
7182;BME280;3632;42.724;23.298;2023-03-05T07:45:00;94914.00;;;8.35;64.26
7182;BME280;3632;42.724;23.298;2023-03-05T07:47:26;94925.41;;;8.52;63.68
7182;BME280;3632;42.724;23.298;2023-03-05T07:49:56;94931.28;;;8.63;63.31
7182;BME280;3632;42.724;23.298;2023-03-05T07:52:23;94927.34;;;8.70;63.49
7182;BME280;3632;42.724;23.298;2023-03-05T07:54:49;94927.59;;;8.56;63.76
7182;BME280;3632;42.724;23.298;2023-03-05T07:57:16;94926.22;;;8.30;63.22
7182;BME280;3632;42.724;23.298;2023-03-05T07:59:43;94927.13;;;8.74;62.41
7182;BME280;3632;42.724;23.298;2023-03-05T08:02:10;94926.41;;;8.83;61.82
7182;BME280;3632;42.724;23.298;2023-03-05T08:04:37;94925.84;;;8.90;61.39
7182;BME280;3632;42.724;23.298;2023-03-05T08:07:06;94363.66;;;4.92;61.10
7182;BME280;3632;42.724;23.298;2023-03-05T08:09:32;94918.44;;;8.87;62.20
7182;BME280;3632;42.724;23.298;2023-03-05T08:11:59;94927.06;;;8.96;62.21
7182;BME280;3632;42.724;23.298;2023-03-05T08:14:26;94940.25;;;9.01;61.22
7182;BME280;3632;42.724;23.298;2023-03-05T08:16:53;94923.97;;;9.03;61.11
7182;BME280;3632;42.724;23.298;2023-03-05T08:19:20;94815.63;;;8.26;61.59
7182;BME280;3632;42.724;23.298;2023-03-05T08:21:46;94857.84;;;8.71;61.55
7182;BME280;3632;42.724;23.298;2023-03-05T08:24:14;94814.91;;;8.57;60.64
7182;BME280;3632;42.724;23.298;2023-03-05T08:26:41;94952.44;;;9.18;60.44
7182;BME280;3632;42.724;23.298;2023-03-05T08:29:09;94917.50;;;9.31;60.32
7182;BME280;3632;42.724;23.298;2023-03-05T08:31:36;94855.69;;;8.99;60.58
7182;BME280;3632;42.724;23.298;2023-03-05T08:34:03;94900.16;;;9.36;60.55
7182;BME280;3632;42.724;23.298;2023-03-05T08:36:30;94906.00;;;9.48;60.21
7182;BME280;3632;42.724;23.298;2023-03-05T08:38:57;94902.81;;;9.67;59.41
7182;BME280;3632;42.724;23.298;2023-03-05T08:41:26;94910.81;;;9.62;59.68
7182;BME280;3632;42.724;23.298;2023-03-05T08:43:53;94902.84;;;9.76;58.64
7182;BME280;3632;42.724;23.298;2023-03-05T08:46:20;94904.53;;;9.66;58.75
7182;BME280;3632;42.724;23.298;2023-03-05T08:48:47;94901.06;;;9.67;58.84
7182;BME280;3632;42.724;23.298;2023-03-05T08:51:15;94889.19;;;9.77;59.69
7182;BME280;3632;42.724;23.298;2023-03-05T08:53:43;94890.19;;;9.86;59.27
7182;BME280;3632;42.724;23.298;2023-03-05T08:56:12;94867.28;;;9.44;59.83
7182;BME280;3632;42.724;23.298;2023-03-05T08:58:41;94891.25;;;9.62;58.28
7182;BME280;3632;42.724;23.298;2023-03-05T09:01:08;94851.00;;;9.15;58.38
7182;BME280;3632;42.724;23.298;2023-03-05T09:03:35;94824.47;;;9.08;59.14
7182;BME280;3632;42.724;23.298;2023-03-05T09:06:04;94883.63;;;9.62;58.27
7182;BME280;3632;42.724;23.298;2023-03-05T09:08:32;94855.06;;;9.59;58.23
7182;BME280;3632;42.724;23.298;2023-03-05T09:11:00;94871.19;;;9.90;57.56
7182;BME280;3632;42.724;23.298;2023-03-05T09:13:27;94871.97;;;10.11;57.47
7182;BME280;3632;42.724;23.298;2023-03-05T09:15:56;94865.53;;;10.07;56.62
7182;BME280;3632;42.724;23.298;2023-03-05T09:18:24;94792.59;;;9.45;57.06
7182;BME280;3632;42.724;23.298;2023-03-05T09:20:51;94873.78;;;9.99;55.87
7182;BME280;3632;42.724;23.298;2023-03-05T09:23:18;94731.78;;;9.42;55.63
7182;BME280;3632;42.724;23.298;2023-03-05T09:25:45;94787.56;;;9.76;55.35
7182;BME280;3632;42.724;23.298;2023-03-05T09:28:12;94804.69;;;10.04;54.87
7182;BME280;3632;42.724;23.298;2023-03-05T09:30:39;94863.00;;;10.37;53.39
7182;BME280;3632;42.724;23.298;2023-03-05T09:33:07;94850.59;;;10.23;54.10
7182;BME280;3632;42.724;23.298;2023-03-05T09:35:34;94851.13;;;10.17;53.98
7182;BME280;3632;42.724;23.298;2023-03-05T09:38:01;94844.16;;;10.19;54.14
7182;BME280;3632;42.724;23.298;2023-03-05T09:40:31;94849.25;;;10.19;53.44
7182;BME280;3632;42.724;23.298;2023-03-05T09:43:10;94840.06;;;10.37;51.79
7182;BME280;3632;42.724;23.298;2023-03-05T09:45:56;94765.63;;;9.63;50.96
7182;BME280;3632;42.724;23.298;2023-03-05T09:48:39;94827.31;;;10.28;51.31
7182;BME280;3632;42.724;23.298;2023-03-05T09:51:11;94840.84;;;10.28;50.12
7182;BME280;3632;42.724;23.298;2023-03-05T09:53:45;94860.03;;;10.32;50.53
7182;BME280;3632;42.724;23.298;2023-03-05T09:56:15;94553.66;;;8.43;50.35
7182;BME280;3632;42.724;23.298;2023-03-05T09:58:47;94842.41;;;10.50;50.08
7182;BME280;3632;42.724;23.298;2023-03-05T10:01:17;94520.06;;;8.70;50.04
7182;BME280;3632;42.724;23.298;2023-03-05T10:03:52;94811.44;;;10.74;49.04
7182;BME280;3632;42.724;23.298;2023-03-05T10:06:22;94812.69;;;10.89;48.28
7182;BME280;3632;42.724;23.298;2023-03-05T10:08:53;94808.69;;;11.15;48.27
7182;BME280;3632;42.724;23.298;2023-03-05T10:11:37;94806.91;;;11.25;47.18
7182;BME280;3632;42.724;23.298;2023-03-05T10:14:09;94801.28;;;11.22;46.97
7182;BME280;3632;42.724;23.298;2023-03-05T10:16:59;94806.22;;;11.42;46.50
7182;BME280;3632;42.724;23.298;2023-03-05T10:19:40;94840.47;;;11.50;44.92
7182;BME280;3632;42.724;23.298;2023-03-05T10:22:14;94817.22;;;11.72;45.33
7182;BME280;3632;42.724;23.298;2023-03-05T10:24:54;94801.06;;;11.81;44.90
7182;BME280;3632;42.724;23.298;2023-03-05T10:27:34;94836.31;;;11.39;45.37
7182;BME280;3632;42.724;23.298;2023-03-05T10:30:17;94791.31;;;11.57;44.55
7182;BME280;3632;42.724;23.298;2023-03-05T10:32:53;94809.75;;;10.93;44.29
7182;BME280;3632;42.724;23.298;2023-03-05T10:35:47;94775.06;;;11.49;44.19
7182;BME280;3632;42.724;23.298;2023-03-05T10:38:26;94801.63;;;11.56;44.13
7182;BME280;3632;42.724;23.298;2023-03-05T10:41:00;94762.94;;;11.70;44.51
7182;BME280;3632;42.724;23.298;2023-03-05T10:43:36;94773.38;;;11.86;43.44
7182;BME280;3632;42.724;23.298;2023-03-05T10:46:12;94533.66;;;10.74;43.15
7182;BME280;3632;42.724;23.298;2023-03-05T10:48:45;94747.03;;;12.40;42.36
7182;BME280;3632;42.724;23.298;2023-03-05T10:51:18;94753.56;;;13.05;41.82
7182;BME280;3632;42.724;23.298;2023-03-05T10:53:53;94775.13;;;13.20;41.90
7182;BME280;3632;42.724;23.298;2023-03-05T10:56:22;94378.09;;;10.93;41.59
7182;BME280;3632;42.724;23.298;2023-03-05T10:58:49;94649.19;;;11.58;42.05
7182;BME280;3632;42.724;23.298;2023-03-05T11:01:22;94740.72;;;12.97;42.56
7182;BME280;3632;42.724;23.298;2023-03-05T11:03:54;94743.72;;;13.10;43.05
7182;BME280;3632;42.724;23.298;2023-03-05T11:06:31;94729.44;;;12.90;42.35
7182;BME280;3632;42.724;23.298;2023-03-05T11:09:16;94732.97;;;12.89;43.02
7182;BME280;3632;42.724;23.298;2023-03-05T11:11:43;94264.09;;;9.58;42.75
7182;BME280;3632;42.724;23.298;2023-03-05T11:14:22;94724.28;;;12.47;43.50
7182;BME280;3632;42.724;23.298;2023-03-05T11:16:54;94721.25;;;12.69;43.08
7182;BME280;3632;42.724;23.298;2023-03-05T11:19:24;94721.19;;;12.96;42.63
7182;BME280;3632;42.724;23.298;2023-03-05T11:22:14;94716.53;;;12.92;43.19
7182;BME280;3632;42.724;23.298;2023-03-05T11:24:41;94718.13;;;12.93;43.18
7182;BME280;3632;42.724;23.298;2023-03-05T11:27:22;94716.66;;;12.90;42.53
7182;BME280;3632;42.724;23.298;2023-03-05T11:29:51;94702.72;;;12.67;43.02
7182;BME280;3632;42.724;23.298;2023-03-05T11:32:21;94700.66;;;12.53;43.47
7182;BME280;3632;42.724;23.298;2023-03-05T11:34:48;94705.56;;;12.46;43.72
7182;BME280;3632;42.724;23.298;2023-03-05T11:37:23;94628.28;;;11.81;43.68
7182;BME280;3632;42.724;23.298;2023-03-05T11:40:13;94699.94;;;12.25;44.31
7182;BME280;3632;42.724;23.298;2023-03-05T11:42:41;94334.75;;;9.64;43.88
7182;BME280;3632;42.724;23.298;2023-03-05T11:45:15;94682.84;;;12.25;44.42
7182;BME280;3632;42.724;23.298;2023-03-05T11:47:46;94687.44;;;12.22;44.57
7182;BME280;3632;42.724;23.298;2023-03-05T11:50:20;94327.03;;;9.93;45.05
7182;BME280;3632;42.724;23.298;2023-03-05T11:52:49;94660.06;;;12.67;44.23
7182;BME280;3632;42.724;23.298;2023-03-05T11:55:18;94063.94;;;9.41;42.83
7182;BME280;3632;42.724;23.298;2023-03-05T11:57:52;94659.56;;;13.59;42.29
7182;BME280;3632;42.724;23.298;2023-03-05T12:00:27;94655.44;;;13.66;41.31
7182;BME280;3632;42.724;23.298;2023-03-05T12:02:58;94659.56;;;13.59;41.65
7182;BME280;3632;42.724;23.298;2023-03-05T12:05:26;94734.69;;;14.09;40.85
7182;BME280;3632;42.724;23.298;2023-03-05T12:07:58;94383.63;;;12.62;39.78
7182;BME280;3632;42.724;23.298;2023-03-05T12:10:27;94642.56;;;14.74;39.84
7182;BME280;3632;42.724;23.298;2023-03-05T12:12:57;94642.16;;;15.42;38.29
7182;BME280;3632;42.724;23.298;2023-03-05T12:16:02;94476.66;;;14.67;37.57
7182;BME280;3632;42.724;23.298;2023-03-05T12:18:39;94640.84;;;16.01;37.42
7182;BME280;3632;42.724;23.298;2023-03-05T12:21:14;94633.88;;;16.10;36.77
7182;BME280;3632;42.724;23.298;2023-03-05T12:23:47;94636.78;;;15.76;36.80
7182;BME280;3632;42.724;23.298;2023-03-05T12:26:14;94621.69;;;15.18;37.58
7182;BME280;3632;42.724;23.298;2023-03-05T12:28:56;94539.66;;;14.12;38.65
7182;BME280;3632;42.724;23.298;2023-03-05T12:31:34;94568.09;;;13.85;39.81
7182;BME280;3632;42.724;23.298;2023-03-05T12:37:03;94627.41;;;15.52;37.59
7182;BME280;3632;42.724;23.298;2023-03-05T12:39:56;94627.78;;;16.11;36.25
7182;BME280;3632;42.724;23.298;2023-03-05T12:42:45;94599.50;;;16.56;36.07
7182;BME280;3632;42.724;23.298;2023-03-05T12:45:32;94607.69;;;16.60;35.38
7182;BME280;3632;42.724;23.298;2023-03-05T12:48:40;94603.13;;;15.54;36.64
7182;BME280;3632;42.724;23.298;2023-03-05T12:51:12;94591.78;;;15.33;37.61
7182;BME280;3632;42.724;23.298;2023-03-05T12:53:39;94525.78;;;15.02;37.60
7182;BME280;3632;42.724;23.298;2023-03-05T12:56:16;94592.06;;;14.75;37.39
7182;BME280;3632;42.724;23.298;2023-03-05T12:58:46;94593.44;;;15.18;37.84
7182;BME280;3632;42.724;23.298;2023-03-05T13:01:23;94586.97;;;15.38;38.28
7182;BME280;3632;42.724;23.298;2023-03-05T13:03:54;94448.69;;;14.08;37.99
7182;BME280;3632;42.724;23.298;2023-03-05T13:06:25;94608.91;;;14.53;38.01
7182;BME280;3632;42.724;23.298;2023-03-05T13:08:59;94588.97;;;14.23;39.07
7182;BME280;3632;42.724;23.298;2023-03-05T13:11:30;94583.16;;;13.96;39.79
7182;BME280;3632;42.724;23.298;2023-03-05T13:14:01;94569.72;;;13.86;39.84
7182;BME280;3632;42.724;23.298;2023-03-05T13:16:35;94590.25;;;14.02;39.48
7182;BME280;3632;42.724;23.298;2023-03-05T13:19:03;94432.09;;;12.72;40.04
7182;BME280;3632;42.724;23.298;2023-03-05T13:21:41;94284.69;;;11.10;40.01
7182;BME280;3632;42.724;23.298;2023-03-05T13:24:14;94592.91;;;13.35;40.08
7182;BME280;3632;42.724;23.298;2023-03-05T13:26:43;94366.63;;;12.95;39.46
7182;BME280;3632;42.724;23.298;2023-03-05T13:29:12;94572.38;;;15.30;38.25
7182;BME280;3632;42.724;23.298;2023-03-05T13:31:41;94575.53;;;15.40;37.61
7182;BME280;3632;42.724;23.298;2023-03-05T13:34:24;94571.59;;;15.30;37.88
7182;BME280;3632;42.724;23.298;2023-03-05T13:36:56;94579.56;;;14.80;38.20